Time;durP1;ratioP1;P1;durP2;ratioP2;P2;SDS_P1;SDS_P2;PMS_P1;PMS_P2;Temp;Humidity;BMP_temperature;BMP_pressure;BME280_temperature;BME280_humidity;BME280_pressure;Samples;Min_cycle;Max_cycle;Signal;HPM_P1;HPM_P2
2022/05/07 00:00:54;;;;;;;14.20;10.38;;;16.00;76.50;;;;;;4933450;29;20171;-69
2022/05/07 00:03:19;;;;;;;13.02;9.07;;;15.90;76.50;;;;;;4916751;29;20032;-69
2022/05/07 00:05:45;;;;;;;14.13;9.32;;;15.90;76.40;;;;;;4937047;29;20028;-69
2022/05/07 00:08:10;;;;;;;13.55;9.15;;;15.90;76.80;;;;;;4936107;29;20163;-69
2022/05/07 00:10:36;;;;;;;14.90;9.82;;;15.80;76.80;;;;;;4936852;29;20078;-69
2022/05/07 00:13:02;;;;;;;14.55;9.27;;;15.80;76.90;;;;;;4934903;29;20078;-69
2022/05/07 00:15:27;;;;;;;14.30;9.30;;;15.80;77.00;;;;;;4936426;29;20422;-69
2022/05/07 00:18:03;;;;;;;12.38;8.85;;;15.80;77.20;;;;;;4935312;29;20035;-69
2022/05/07 00:20:31;;;;;;;13.90;9.10;;;15.80;77.30;;;;;;4937156;29;20027;-69
2022/05/07 00:22:57;;;;;;;12.52;8.68;;;15.70;77.40;;;;;;4935252;29;20034;-69
2022/05/07 00:25:24;;;;;;;13.18;8.63;;;15.70;77.50;;;;;;4936658;29;20040;-69
2022/05/07 00:27:49;;;;;;;12.48;8.60;;;15.70;77.70;;;;;;4934587;29;20038;-69
2022/05/07 00:30:16;;;;;;;14.65;8.32;;;15.70;77.80;;;;;;4917980;29;20056;-69
2022/05/07 00:32:41;;;;;;;13.27;8.40;;;15.70;78.00;;;;;;4934461;29;20031;-69
2022/05/07 00:35:10;;;;;;;11.30;8.75;;;15.60;77.70;;;;;;4935669;29;20028;-69
2022/05/07 00:37:35;;;;;;;12.52;8.85;;;15.60;78.00;;;;;;4936674;29;20476;-69
2022/05/07 00:40:00;;;;;;;11.75;9.00;;;15.60;77.90;;;;;;4918104;29;20059;-69
2022/05/07 00:42:26;;;;;;;12.35;8.32;;;15.60;77.80;;;;;;4936484;29;20060;-69
2022/05/07 00:44:51;;;;;;;10.50;7.60;;;15.50;77.90;;;;;;4919968;29;20028;-69
2022/05/07 00:47:23;;;;;;;11.90;7.90;;;15.60;78.00;;;;;;4936655;29;20027;-68
2022/05/07 00:49:51;;;;;;;10.40;8.13;;;15.50;78.10;;;;;;4935170;29;20115;-69
2022/05/07 00:52:20;;;;;;;12.48;8.43;;;15.50;78.10;;;;;;4936073;29;20043;-68
2022/05/07 00:54:47;;;;;;;11.75;7.80;;;15.60;78.30;;;;;;4935063;29;20098;-68
2022/05/07 00:57:14;;;;;;;9.32;7.75;;;15.50;78.10;;;;;;4935410;29;20110;-68
2022/05/07 00:59:39;;;;;;;11.52;8.18;;;15.50;78.20;;;;;;4930748;29;20028;-69
2022/05/07 01:02:05;;;;;;;10.13;6.85;;;15.50;78.20;;;;;;4936511;29;20027;-69
2022/05/07 01:04:31;;;;;;;12.50;7.70;;;15.60;78.20;;;;;;4932235;29;20028;-69
2022/05/07 01:06:57;;;;;;;10.07;7.32;;;15.60;78.20;;;;;;4936059;29;20034;-69
2022/05/07 01:09:22;;;;;;;10.73;7.55;;;15.60;78.20;;;;;;4922889;29;20036;-69
2022/05/07 01:11:48;;;;;;;9.48;7.25;;;15.60;78.20;;;;;;4925746;29;20040;-68
2022/05/07 01:14:13;;;;;;;8.93;6.72;;;15.60;78.20;;;;;;4930126;29;20028;-69
2022/05/07 01:16:39;;;;;;;10.57;7.57;;;15.60;78.10;;;;;;4931208;29;20035;-69
2022/05/07 01:19:05;;;;;;;10.48;7.30;;;15.70;78.10;;;;;;4935098;29;20047;-69
2022/05/07 01:21:30;;;;;;;9.57;6.50;;;15.70;78.10;;;;;;4935662;29;20023;-69
2022/05/07 01:23:56;;;;;;;9.00;6.40;;;15.70;78.10;;;;;;4934558;29;20043;-69
2022/05/07 01:26:23;;;;;;;11.40;8.25;;;15.70;78.10;;;;;;4935445;29;20032;-68
2022/05/07 01:28:49;;;;;;;10.90;6.85;;;15.70;78.10;;;;;;4934293;29;20042;-68
2022/05/07 01:31:15;;;;;;;9.63;7.28;;;15.70;78.20;;;;;;4934469;29;20030;-69
2022/05/07 01:33:41;;;;;;;9.15;6.88;;;15.80;78.20;;;;;;4934395;29;20042;-69
2022/05/07 01:36:09;;;;;;;11.10;6.53;;;15.80;78.10;;;;;;4934301;29;20024;-69
2022/05/07 01:38:35;;;;;;;10.80;6.97;;;15.80;78.00;;;;;;4934181;29;20058;-69
2022/05/07 01:41:03;;;;;;;15.20;7.60;;;15.80;78.00;;;;;;4934990;29;20554;-69
2022/05/07 01:43:28;;;;;;;10.45;6.45;;;15.90;77.90;;;;;;4928416;29;20039;-69
2022/05/07 01:45:55;;;;;;;9.02;6.22;;;15.90;77.80;;;;;;4932054;29;20107;-69
2022/05/07 01:48:21;;;;;;;8.32;5.93;;;15.90;78.10;;;;;;4926670;29;20031;-69
2022/05/07 01:50:47;;;;;;;9.63;5.75;;;15.90;77.50;;;;;;4934400;29;20510;-69
2022/05/07 01:53:14;;;;;;;8.65;6.03;;;16.00;77.30;;;;;;4926962;29;20043;-69
2022/05/07 01:55:40;;;;;;;6.95;5.43;;;16.00;77.10;;;;;;4934667;29;20028;-69
2022/05/07 01:58:06;;;;;;;7.07;4.68;;;16.00;77.00;;;;;;4934053;29;20028;-69
2022/05/07 02:00:33;;;;;;;6.90;4.40;;;16.00;76.40;;;;;;4935003;29;20035;-69
2022/05/07 02:02:59;;;;;;;8.27;4.55;;;16.00;75.90;;;;;;4934532;29;20098;-69
2022/05/07 02:05:29;;;;;;;5.32;4.35;;;16.10;75.60;;;;;;4932000;29;20031;-69
2022/05/07 02:07:55;;;;;;;6.10;4.47;;;16.10;75.50;;;;;;4934290;29;20106;-70
2022/05/07 02:10:21;;;;;;;7.03;4.20;;;16.10;75.40;;;;;;4934319;29;20056;-69
2022/05/07 02:12:48;;;;;;;5.72;4.30;;;16.20;75.20;;;;;;4934663;29;20036;-69
2022/05/07 02:15:13;;;;;;;5.38;3.90;;;16.20;75.00;;;;;;4929732;29;20476;-69
2022/05/07 02:17:39;;;;;;;6.28;4.38;;;16.20;74.90;;;;;;4934903;29;20035;-69
2022/05/07 02:20:05;;;;;;;6.90;4.80;;;16.20;74.90;;;;;;4922449;29;20024;-69
2022/05/07 02:22:31;;;;;;;5.93;5.00;;;16.20;74.80;;;;;;4934435;29;20519;-69
2022/05/07 02:24:58;;;;;;;6.85;4.97;;;16.20;74.60;;;;;;4932659;29;20051;-69
2022/05/07 02:27:24;;;;;;;5.85;4.13;;;16.20;74.40;;;;;;4934802;29;20023;-69
2022/05/07 02:29:49;;;;;;;5.82;4.25;;;16.20;74.40;;;;;;4933061;29;20427;-69
2022/05/07 02:32:15;;;;;;;6.68;4.32;;;16.20;74.10;;;;;;4915933;29;20044;-69
2022/05/07 02:34:41;;;;;;;4.90;4.03;;;16.20;74.20;;;;;;4929239;29;20384;-69
2022/05/07 02:37:07;;;;;;;6.65;4.50;;;16.20;74.30;;;;;;4934068;29;20016;-69
2022/05/07 02:39:33;;;;;;;5.63;4.15;;;16.20;74.30;;;;;;4932733;29;20046;-69
2022/05/07 02:44:43;;;;;;;6.82;3.95;;;16.20;74.20;;;;;;4933316;29;20035;-69
2022/05/07 02:47:09;;;;;;;7.07;4.63;;;16.20;74.20;;;;;;4934108;29;20043;-69
2022/05/07 02:49:34;;;;;;;6.32;3.85;;;16.20;74.20;;;;;;4932186;29;20139;-69
2022/05/07 02:52:00;;;;;;;7.57;4.28;;;16.20;74.30;;;;;;4923825;29;20083;-69
2022/05/07 02:54:26;;;;;;;7.22;4.22;;;16.20;74.30;;;;;;4929969;29;20035;-69
2022/05/07 02:56:52;;;;;;;8.30;4.35;;;16.20;74.20;;;;;;4934737;29;20036;-69
2022/05/07 02:59:17;;;;;;;5.75;4.10;;;16.20;74.90;;;;;;4932691;29;20035;-69
2022/05/07 03:01:43;;;;;;;4.97;3.80;;;16.20;74.20;;;;;;4933953;29;20031;-69
2022/05/07 03:04:09;;;;;;;8.07;3.80;;;16.30;74.10;;;;;;4933172;29;20163;-69
2022/05/07 03:06:35;;;;;;;5.78;3.78;;;16.30;74.00;;;;;;4933996;29;20044;-68
2022/05/07 03:09:02;;;;;;;7.63;4.43;;;16.30;73.80;;;;;;4924375;29;20032;-68
2022/05/07 03:11:27;;;;;;;7.90;3.85;;;16.30;73.70;;;;;;4934090;29;20480;-68
2022/05/07 03:13:53;;;;;;;5.30;3.78;;;16.30;73.60;;;;;;4933214;29;20039;-68
2022/05/07 03:16:18;;;;;;;5.22;4.00;;;16.30;73.40;;;;;;4934222;29;20032;-68
2022/05/07 03:18:44;;;;;;;5.35;3.95;;;16.30;73.20;;;;;;4932923;29;20539;-68
2022/05/07 03:21:09;;;;;;;6.63;3.90;;;16.30;73.30;;;;;;4934172;29;20038;-68
2022/05/07 03:23:35;;;;;;;5.57;4.20;;;16.30;73.30;;;;;;4931930;29;20126;-68
2022/05/07 03:26:00;;;;;;;4.80;3.50;;;16.40;73.20;;;;;;4934549;29;20365;-68
2022/05/07 03:28:26;;;;;;;8.60;4.70;;;16.40;73.20;;;;;;4929857;29;20109;-68
2022/05/07 03:30:51;;;;;;;5.07;3.65;;;16.30;73.00;;;;;;4934523;29;20506;-68
2022/05/07 03:33:17;;;;;;;8.18;4.20;;;16.30;73.00;;;;;;4929798;29;20138;-68
2022/05/07 03:35:43;;;;;;;20.40;15.10;;;16.30;73.00;;;;;;4915232;29;20023;-68
2022/05/07 03:38:09;;;;;;;7.13;5.70;;;16.30;73.00;;;;;;4935272;29;20070;-67
2022/05/07 03:40:35;;;;;;;7.68;4.70;;;16.30;72.90;;;;;;4931361;29;20059;-67
2022/05/07 03:43:01;;;;;;;5.88;4.40;;;16.30;72.90;;;;;;4918788;29;20079;-67
2022/05/07 03:45:27;;;;;;;5.38;3.67;;;16.30;73.00;;;;;;4918687;29;20039;-68
2022/05/07 03:47:53;;;;;;;5.70;4.50;;;16.30;73.00;;;;;;4918208;29;20025;-67
2022/05/07 03:50:18;;;;;;;6.50;4.22;;;16.30;72.90;;;;;;4936500;29;20499;-68
2022/05/07 03:55:28;;;;;;;6.15;4.43;;;16.20;72.90;;;;;;4935279;29;20040;-68
2022/05/07 03:57:54;;;;;;;6.72;4.50;;;16.20;73.00;;;;;;4936521;29;20039;-68
2022/05/07 04:00:20;;;;;;;9.73;4.82;;;16.20;73.10;;;;;;4935972;29;20027;-69
2022/05/07 04:02:46;;;;;;;7.30;4.80;;;16.20;73.20;;;;;;4935723;29;20674;-68
2022/05/07 04:05:11;;;;;;;5.85;4.43;;;16.10;73.30;;;;;;4934458;29;20094;-68
2022/05/07 04:07:37;;;;;;;8.20;5.40;;;16.10;73.50;;;;;;4937211;29;20119;-69
2022/05/07 04:10:03;;;;;;;5.93;4.38;;;16.10;73.60;;;;;;4934947;29;20055;-68
2022/05/07 04:12:29;;;;;;;8.25;4.50;;;16.10;73.70;;;;;;4936781;29;20079;-68
2022/05/07 04:14:59;;;;;;;7.45;4.20;;;16.10;73.90;;;;;;4931416;29;20028;-68
2022/05/07 04:17:24;;;;;;;7.35;4.03;;;16.10;74.10;;;;;;4936750;29;20027;-68
2022/05/07 04:19:50;;;;;;;6.57;4.32;;;16.10;74.20;;;;;;4926253;29;20099;-69
2022/05/07 04:22:15;;;;;;;4.78;4.28;;;16.00;74.20;;;;;;4936980;29;20435;-68
2022/05/07 04:24:40;;;;;;;12.70;4.45;;;16.00;74.40;;;;;;4935182;29;20039;-68
2022/05/07 04:27:07;;;;;;;6.32;4.53;;;16.00;74.50;;;;;;4933360;29;20495;-69
2022/05/07 04:29:32;;;;;;;7.43;5.00;;;16.00;74.60;;;;;;4929612;29;20032;-68
2022/05/07 04:31:58;;;;;;;8.13;4.88;;;16.00;74.80;;;;;;4936378;29;20044;-68
2022/05/07 04:34:26;;;;;;;8.77;4.82;;;16.00;74.80;;;;;;4935544;29;20032;-69
2022/05/07 04:36:51;;;;;;;5.85;4.95;;;16.00;74.90;;;;;;4936708;29;20027;-69
2022/05/07 04:39:17;;;;;;;6.82;4.10;;;16.10;75.00;;;;;;4935664;29;20523;-68
2022/05/07 04:41:42;;;;;;;6.40;4.20;;;16.00;74.90;;;;;;4930414;29;20119;-68
2022/05/07 04:44:08;;;;;;;7.53;4.75;;;16.00;75.00;;;;;;4926734;29;20047;-68
2022/05/07 04:46:34;;;;;;;6.85;4.60;;;16.00;75.10;;;;;;4935992;29;20090;-68
2022/05/07 04:48:59;;;;;;;7.22;4.32;;;16.10;75.10;;;;;;4934156;29;20036;-68
2022/05/07 04:51:25;;;;;;;9.20;5.07;;;16.10;75.10;;;;;;4936517;29;20030;-68
2022/05/07 04:53:50;;;;;;;7.65;4.40;;;16.10;75.20;;;;;;4933236;29;20031;-68
2022/05/07 04:56:16;;;;;;;5.32;4.25;;;16.10;75.00;;;;;;4930200;29;20090;-68
2022/05/07 04:58:41;;;;;;;5.88;4.55;;;16.20;74.80;;;;;;4927435;29;20059;-68
2022/05/07 05:01:07;;;;;;;6.15;4.65;;;16.20;74.60;;;;;;4901065;29;20055;-68
2022/05/07 05:03:32;;;;;;;7.80;5.03;;;16.30;74.50;;;;;;4930952;29;20051;-68
2022/05/07 05:05:57;;;;;;;7.68;4.50;;;16.30;74.50;;;;;;4936071;29;20024;-69
2022/05/07 05:08:23;;;;;;;7.28;4.50;;;16.30;74.40;;;;;;4934817;29;20036;-68
2022/05/07 05:10:48;;;;;;;10.23;4.30;;;16.30;74.20;;;;;;4935869;29;20024;-68
2022/05/07 05:13:14;;;;;;;6.88;4.40;;;16.30;74.10;;;;;;4933227;29;20040;-67
2022/05/07 05:15:39;;;;;;;7.20;4.60;;;16.30;74.40;;;;;;4924925;29;20135;-67
2022/05/07 05:18:06;;;;;;;5.30;4.50;;;16.40;74.50;;;;;;4934438;29;20039;-69
2022/05/07 05:20:31;;;;;;;7.93;4.30;;;16.40;74.50;;;;;;4935851;29;20032;-69
2022/05/07 05:22:57;;;;;;;7.35;4.22;;;16.40;74.40;;;;;;4934535;29;20026;-69
2022/05/07 05:25:22;;;;;;;6.97;4.43;;;16.50;74.30;;;;;;4933294;29;20123;-68
2022/05/07 05:27:48;;;;;;;6.63;3.97;;;16.50;74.10;;;;;;4934544;29;20031;-68
2022/05/07 05:30:13;;;;;;;7.55;3.90;;;16.60;74.00;;;;;;4917644;29;20036;-69
2022/05/07 05:32:39;;;;;;;6.68;4.63;;;16.60;73.90;;;;;;4924354;29;20091;-69
2022/05/07 05:35:05;;;;;;;8.25;4.32;;;16.60;73.90;;;;;;4934649;29;20115;-68
2022/05/07 05:37:30;;;;;;;8.18;4.38;;;16.70;74.00;;;;;;4935334;29;20100;-68
2022/05/07 05:39:56;;;;;;;6.15;4.28;;;16.70;73.90;;;;;;4934208;29;20032;-68
2022/05/07 05:42:22;;;;;;;7.13;4.72;;;16.80;73.80;;;;;;4935135;29;20070;-67
2022/05/07 05:44:47;;;;;;;9.30;5.57;;;16.80;73.90;;;;;;4930284;29;20075;-68
2022/05/07 05:47:13;;;;;;;8.43;4.90;;;16.90;74.00;;;;;;4924115;29;20027;-68
2022/05/07 05:49:38;;;;;;;6.07;4.65;;;16.90;74.10;;;;;;4928360;29;20443;-68
2022/05/07 05:52:05;;;;;;;5.57;4.32;;;16.90;73.90;;;;;;4931741;29;20373;-68
2022/05/07 05:54:30;;;;;;;7.25;4.30;;;17.00;73.50;;;;;;4933305;29;20111;-68
2022/05/07 05:56:57;;;;;;;6.78;4.45;;;17.10;73.50;;;;;;4932706;29;20748;-68
2022/05/07 05:59:23;;;;;;;7.28;4.60;;;17.10;73.40;;;;;;4920747;29;20487;-68
2022/05/07 06:01:49;;;;;;;7.72;3.97;;;17.10;73.30;;;;;;4927274;29;20074;-68
2022/05/07 06:04:14;;;;;;;5.70;4.10;;;17.20;73.10;;;;;;4928080;29;20036;-68
2022/05/07 06:06:41;;;;;;;6.10;3.70;;;17.30;73.00;;;;;;4934614;29;20163;-68
2022/05/07 06:09:08;;;;;;;6.35;4.75;;;17.30;72.90;;;;;;4933880;29;20028;-68
2022/05/07 06:11:33;;;;;;;5.25;3.80;;;17.30;72.90;;;;;;4932287;29;20535;-70
2022/05/07 06:13:59;;;;;;;5.45;4.13;;;17.40;73.00;;;;;;4933053;29;20044;-69
2022/05/07 06:16:24;;;;;;;6.57;4.18;;;17.40;72.90;;;;;;4925313;29;20076;-74
2022/05/07 06:18:50;;;;;;;6.10;3.72;;;17.50;72.90;;;;;;4932347;29;20031;-75
2022/05/07 06:21:15;;;;;;;7.07;4.05;;;17.50;72.70;;;;;;4925996;29;20022;-72
2022/05/07 06:23:41;;;;;;;7.13;3.60;;;17.60;72.60;;;;;;4921188;29;20131;-72
2022/05/07 06:28:52;;;;;;;8.57;4.13;;;17.70;72.40;;;;;;4926727;29;20098;-73
2022/05/07 06:31:18;;;;;;;4.88;3.45;;;17.80;72.20;;;;;;4925797;29;20040;-72
2022/05/07 06:33:44;;;;;;;5.00;3.75;;;17.80;72.00;;;;;;4920929;29;20531;-72
2022/05/07 06:36:09;;;;;;;7.55;3.95;;;17.90;71.80;;;;;;4927031;29;20036;-72
2022/05/07 06:38:35;;;;;;;4.60;3.58;;;18.00;72.00;;;;;;4928515;29;20032;-72
2022/05/07 06:41:02;;;;;;;5.32;3.65;;;18.10;71.70;;;;;;4928282;29;20036;-71
2022/05/07 06:43:32;;;;;;;5.45;3.60;;;18.20;71.40;;;;;;4924155;29;20035;-72
2022/05/07 06:45:58;;;;;;;4.72;3.03;;;18.30;71.20;;;;;;4931072;29;20031;-73
2022/05/07 06:48:24;;;;;;;5.45;3.00;;;18.40;71.20;;;;;;4921759;29;20107;-73
2022/05/07 06:50:50;;;;;;;4.38;3.10;;;18.50;71.10;;;;;;4915309;29;20127;-72
2022/05/07 06:53:16;;;;;;;3.67;2.65;;;18.60;70.70;;;;;;4928473;29;20563;-72
2022/05/07 06:55:58;;;;;;;5.78;3.08;;;18.70;70.10;;;;;;4915053;29;20180;-72
2022/05/07 06:58:29;;;;;;;5.35;3.25;;;18.80;69.90;;;;;;4913302;29;21523;-72
2022/05/07 07:00:57;;;;;;;4.57;3.08;;;19.00;69.70;;;;;;4933790;29;20032;-72
2022/05/07 07:03:23;;;;;;;4.35;3.10;;;19.10;69.00;;;;;;4932070;29;20106;-73
2022/05/07 07:05:50;;;;;;;4.75;2.70;;;19.20;68.70;;;;;;4933323;29;20044;-73
2022/05/07 07:08:16;;;;;;;3.40;2.50;;;19.30;68.00;;;;;;4929497;29;20651;-72
2022/05/07 07:10:42;;;;;;;3.67;2.63;;;19.30;67.90;;;;;;4905961;29;20460;-71
2022/05/07 07:13:08;;;;;;;4.45;3.05;;;19.40;67.60;;;;;;4918499;29;20032;-75
2022/05/07 07:15:33;;;;;;;5.18;2.70;;;19.50;67.30;;;;;;4936873;29;20036;-70
2022/05/07 07:17:59;;;;;;;5.32;2.72;;;19.60;67.20;;;;;;4936759;29;20035;-74
2022/05/07 07:20:24;;;;;;;3.92;2.78;;;19.70;67.00;;;;;;4937432;29;20027;-73
2022/05/07 07:22:50;;;;;;;4.45;2.90;;;19.80;66.80;;;;;;4916599;29;20036;-70
2022/05/07 07:25:16;;;;;;;3.10;2.60;;;19.90;66.60;;;;;;4923746;29;20492;-72
2022/05/07 07:27:41;;;;;;;4.10;2.67;;;20.00;66.20;;;;;;4936332;29;20019;-72
2022/05/07 07:30:07;;;;;;;4.78;2.60;;;20.10;65.80;;;;;;4925120;29;20039;-72
2022/05/07 07:32:33;;;;;;;4.45;2.60;;;20.10;65.20;;;;;;4936260;29;20035;-72
2022/05/07 07:34:58;;;;;;;5.93;2.78;;;20.20;64.90;;;;;;4929357;29;20035;-71
2022/05/07 07:37:25;;;;;;;4.68;2.47;;;20.30;65.20;;;;;;4932396;29;20031;-72
2022/05/07 07:39:50;;;;;;;3.90;2.30;;;20.40;65.00;;;;;;4936357;29;20032;-72
2022/05/07 07:42:17;;;;;;;3.90;2.60;;;20.50;64.90;;;;;;4930200;29;20027;-71
2022/05/07 07:44:42;;;;;;;3.05;2.38;;;20.60;64.50;;;;;;4935503;29;20060;-71
2022/05/07 07:49:52;;;;;;;5.70;3.33;;;20.90;64.00;;;;;;4934295;29;20027;-72
2022/05/07 07:52:19;;;;;;;4.60;2.80;;;21.00;63.70;;;;;;4923756;29;20495;-70
2022/05/07 07:54:44;;;;;;;5.07;3.28;;;21.10;62.70;;;;;;4936835;29;20102;-70
2022/05/07 07:57:10;;;;;;;4.03;2.35;;;21.20;62.80;;;;;;4918618;29;20119;-70
2022/05/07 07:59:35;;;;;;;6.25;3.25;;;21.30;62.20;;;;;;4936187;29;20095;-71
2022/05/07 08:02:01;;;;;;;5.20;2.80;;;21.40;61.60;;;;;;4936131;29;20020;-71
2022/05/07 08:04:26;;;;;;;8.40;3.40;;;21.50;61.30;;;;;;4935333;29;20031;-71
2022/05/07 08:11:40;;;;;;;8.15;3.10;;;21.50;60.90;;;;;;4931240;29;20059;-71
2022/05/07 08:12:25;;;;;;;4.50;3.03;;;21.50;60.80;;;;;;4918237;29;20044;-71
2022/05/07 08:14:51;;;;;;;5.05;3.08;;;21.60;61.10;;;;;;4932599;29;20028;-71
2022/05/07 08:17:16;;;;;;;8.65;3.13;;;21.50;60.90;;;;;;4922677;29;20032;-72
2022/05/07 08:19:43;;;;;;;4.80;3.50;;;21.60;60.60;;;;;;4931532;29;20110;-72
2022/05/07 08:22:09;;;;;;;6.40;3.42;;;21.60;60.40;;;;;;4936090;29;20450;-72
2022/05/07 08:24:34;;;;;;;6.10;3.10;;;21.70;60.10;;;;;;4918392;29;20039;-72
2022/05/07 08:27:00;;;;;;;5.93;3.00;;;21.80;60.30;;;;;;4931377;29;20027;-72
2022/05/07 08:29:26;;;;;;;6.90;3.40;;;21.80;59.80;;;;;;4933882;29;20047;-72
2022/05/07 08:31:52;;;;;;;5.35;3.13;;;21.80;59.90;;;;;;4925145;29;20040;-71
2022/05/07 08:34:17;;;;;;;3.50;2.58;;;21.80;59.30;;;;;;4932397;29;20487;-71
2022/05/07 08:36:42;;;;;;;4.65;2.88;;;21.90;59.40;;;;;;4926677;29;20020;-72
2022/05/07 08:39:08;;;;;;;6.07;3.80;;;21.90;58.70;;;;;;4935522;29;20031;-72
2022/05/07 08:41:34;;;;;;;4.50;3.40;;;21.90;58.60;;;;;;4926481;29;20024;-72
2022/05/07 08:44:01;;;;;;;6.25;3.55;;;22.00;58.90;;;;;;4929389;29;20055;-71
2022/05/07 08:46:27;;;;;;;6.35;3.00;;;22.00;58.70;;;;;;4934198;29;20028;-74
2022/05/07 08:48:53;;;;;;;4.80;3.03;;;22.10;58.40;;;;;;4935101;29;20053;-70
2022/05/07 08:51:21;;;;;;;4.95;2.83;;;22.10;58.60;;;;;;4929137;29;20067;-70
2022/05/07 08:53:49;;;;;;;6.32;3.25;;;22.20;58.40;;;;;;4934525;29;20044;-71
2022/05/07 08:56:16;;;;;;;6.47;3.33;;;22.30;58.60;;;;;;4930491;29;20558;-69
2022/05/07 08:58:52;;;;;;;7.18;2.90;;;22.50;58.50;;;;;;4934445;29;20036;-70
2022/05/07 09:01:18;;;;;;;5.97;3.22;;;22.60;58.90;;;;;;4934990;29;20080;-69
2022/05/07 09:03:46;;;;;;;6.55;3.38;;;22.70;58.10;;;;;;4934296;29;20118;-69
2022/05/07 09:06:19;;;;;;;8.30;3.92;;;22.80;57.60;;;;;;4935320;29;20024;-69
2022/05/07 09:08:46;;;;;;;6.07;4.20;;;22.90;56.50;;;;;;4934433;29;20040;-70
2022/05/07 09:11:11;;;;;;;6.20;4.00;;;22.90;56.30;;;;;;4930179;29;20024;-71
2022/05/07 09:13:37;;;;;;;6.40;3.75;;;22.90;56.30;;;;;;4921675;29;20489;-70
2022/05/07 09:16:04;;;;;;;5.35;3.47;;;22.90;56.00;;;;;;4924771;29;20028;-70
2022/05/07 09:18:30;;;;;;;5.40;3.60;;;23.00;55.60;;;;;;4917158;29;20042;-70
2022/05/07 09:21:17;;;;;;;6.63;3.83;;;23.00;55.10;;;;;;4923587;29;20028;-69
2022/05/07 09:24:06;;;;;;;6.88;3.95;;;23.00;54.80;;;;;;4919376;29;20051;-70
2022/05/07 09:26:35;;;;;;;6.75;4.00;;;22.90;54.70;;;;;;4922653;29;20480;-70
2022/05/07 09:29:03;;;;;;;7.30;3.95;;;22.90;54.70;;;;;;4928352;29;20116;-70
2022/05/07 09:31:30;;;;;;;11.48;3.67;;;22.80;54.10;;;;;;4916389;29;20555;-70
2022/05/07 09:35:47;;;;;;;6.47;3.60;;;22.80;54.20;;;;;;4923019;29;20102;-69
2022/05/07 09:36:43;;;;;;;5.20;3.00;;;22.70;54.30;;;;;;4926873;29;20024;-69
2022/05/07 09:39:14;;;;;;;5.47;3.15;;;22.70;54.80;;;;;;4922333;29;20044;-70
2022/05/07 09:41:43;;;;;;;5.60;3.63;;;22.70;54.90;;;;;;4935231;29;20353;-70
2022/05/07 09:44:09;;;;;;;5.43;3.42;;;22.70;54.60;;;;;;4935518;29;20131;-66
2022/05/07 09:46:35;;;;;;;5.55;3.83;;;22.80;54.90;;;;;;4934873;29;20035;-68
2022/05/07 09:49:03;;;;;;;6.97;3.63;;;22.90;54.80;;;;;;4935481;29;20042;-67
2022/05/07 09:51:30;;;;;;;5.82;3.25;;;23.00;54.20;;;;;;4934628;29;20062;-67
2022/05/07 09:59:25;;;;;;;6.50;3.35;;;23.00;54.40;;;;;;4936135;29;20031;-67
2022/05/07 10:02:15;;;;;;;6.88;3.90;;;23.00;55.20;;;;;;4935298;29;20035;-68
2022/05/07 10:04:53;;;;;;;4.45;3.28;;;22.90;54.40;;;;;;4954338;29;20023;-68
2022/05/07 10:07:38;;;;;;;9.55;3.88;;;22.90;54.50;;;;;;4943931;29;20039;-68
2022/05/07 10:10:17;;;;;;;5.22;3.45;;;23.00;54.60;;;;;;4933922;29;20029;-67
2022/05/07 10:12:45;;;;;;;4.95;3.28;;;23.10;54.60;;;;;;4923590;29;20051;-68
2022/05/07 10:15:14;;;;;;;5.53;3.22;;;23.20;54.80;;;;;;4930892;29;20043;-68
2022/05/07 10:17:40;;;;;;;7.70;3.42;;;23.30;54.80;;;;;;4926787;29;20031;-69
2022/05/07 10:20:12;;;;;;;6.85;3.80;;;23.30;54.60;;;;;;4933525;29;20030;-69
2022/05/07 10:22:37;;;;;;;6.10;3.33;;;23.30;54.30;;;;;;4932022;29;20076;-69
2022/05/07 10:25:11;;;;;;;6.55;3.50;;;23.30;54.50;;;;;;4929780;29;20044;-69
2022/05/07 10:27:44;;;;;;;5.78;3.30;;;23.30;54.60;;;;;;4928357;29;20034;-69
2022/05/07 10:30:14;;;;;;;6.65;3.13;;;23.40;54.70;;;;;;4919550;29;20035;-69
2022/05/07 10:33:06;;;;;;;7.45;3.63;;;23.40;54.40;;;;;;4933575;29;20504;-69
2022/05/07 10:35:42;;;;;;;4.53;3.40;;;23.40;54.70;;;;;;4930970;29;20036;-68
2022/05/07 10:38:13;;;;;;;4.78;3.35;;;23.40;54.60;;;;;;4931770;29;20063;-69
2022/05/07 10:40:54;;;;;;;4.47;3.28;;;23.40;54.20;;;;;;4927231;29;20031;-69
2022/05/07 10:43:38;;;;;;;5.25;3.00;;;23.40;53.90;;;;;;4924707;29;20024;-69
2022/05/07 10:46:12;;;;;;;6.90;3.25;;;23.40;53.90;;;;;;4920843;29;20047;-68
2022/05/07 10:48:48;;;;;;;5.80;3.13;;;23.40;53.90;;;;;;4927282;29;20519;-70
2022/05/07 10:51:20;;;;;;;7.18;3.65;;;23.50;54.00;;;;;;4932375;29;20135;-69
2022/05/07 10:53:48;;;;;;;5.85;3.17;;;23.50;54.40;;;;;;4931272;29;20511;-69
2022/05/07 10:56:18;;;;;;;4.40;3.10;;;23.50;54.10;;;;;;4932134;29;20091;-69
2022/05/07 10:58:49;;;;;;;4.35;3.13;;;23.70;54.10;;;;;;4934000;29;20476;-69
2022/05/07 11:01:19;;;;;;;5.85;2.97;;;23.80;53.80;;;;;;4934435;29;20040;-68
2022/05/07 11:03:45;;;;;;;4.22;2.83;;;23.90;53.60;;;;;;4933228;29;20042;-69
2022/05/07 11:06:11;;;;;;;5.75;3.15;;;24.00;52.90;;;;;;4934322;29;20043;-69
2022/05/07 11:08:46;;;;;;;4.55;2.92;;;24.00;52.50;;;;;;4934220;29;20444;-70
2022/05/07 11:11:14;;;;;;;11.75;3.28;;;24.00;53.20;;;;;;4934529;29;20060;-68
2022/05/07 11:13:54;;;;;;;4.78;3.17;;;24.10;53.00;;;;;;4933135;29;20056;-69
2022/05/07 11:16:21;;;;;;;4.88;3.17;;;24.20;53.00;;;;;;4933859;29;20115;-69
2022/05/07 11:18:52;;;;;;;8.48;3.45;;;24.10;53.30;;;;;;4930869;29;20030;-68
2022/05/07 11:21:23;;;;;;;6.15;3.53;;;24.20;53.30;;;;;;4918456;29;20518;-69
2022/05/07 11:23:53;;;;;;;7.22;4.43;;;24.10;53.30;;;;;;4932266;29;20063;-70
2022/05/07 11:26:23;;;;;;;5.60;4.13;;;24.00;53.50;;;;;;4933924;29;20459;-70
2022/05/07 11:28:50;;;;;;;7.00;3.63;;;23.90;53.40;;;;;;4931561;29;20036;-69
2022/05/07 11:31:30;;;;;;;7.43;4.18;;;23.80;53.50;;;;;;4930888;29;20034;-69
2022/05/07 11:34:12;;;;;;;4.78;3.65;;;23.80;53.90;;;;;;4932056;29;20058;-71
2022/05/07 11:36:39;;;;;;;6.40;3.25;;;23.70;53.90;;;;;;4917708;29;20032;-68
2022/05/07 11:39:06;;;;;;;5.10;3.05;;;23.80;54.20;;;;;;4923312;29;20356;-68
2022/05/07 11:41:33;;;;;;;8.80;3.25;;;23.80;53.70;;;;;;4933954;29;20099;-69
2022/05/07 11:46:55;;;;;;;4.78;3.35;;;23.90;53.30;;;;;;4933889;29;20020;-69
2022/05/07 11:49:33;;;;;;;6.88;3.63;;;23.90;53.70;;;;;;4933233;29;20100;-70
2022/05/07 11:52:07;;;;;;;8.70;3.58;;;23.80;54.60;;;;;;4921287;29;20051;-69
2022/05/07 11:54:33;;;;;;;5.18;3.75;;;23.70;54.80;;;;;;4933038;29;20111;-68
2022/05/07 11:56:59;;;;;;;6.00;4.13;;;23.70;54.60;;;;;;4933302;29;20144;-68
2022/05/07 11:59:27;;;;;;;6.63;4.05;;;23.60;54.40;;;;;;4936584;29;20094;-68
2022/05/07 12:01:53;;;;;;;5.43;3.83;;;23.70;54.40;;;;;;4938856;29;20495;-68
2022/05/07 12:04:18;;;;;;;5.75;3.92;;;23.70;54.70;;;;;;4940006;29;20039;-68
2022/05/07 12:06:55;;;;;;;5.40;3.70;;;23.70;54.30;;;;;;4937098;29;20066;-68
2022/05/07 12:09:21;;;;;;;5.65;4.25;;;23.80;54.30;;;;;;4935070;29;20034;-68
2022/05/07 12:11:48;;;;;;;5.13;3.38;;;23.80;54.30;;;;;;4929893;29;20122;-68
2022/05/07 12:14:14;;;;;;;6.40;3.88;;;23.90;54.20;;;;;;4929856;29;20040;-68
2022/05/07 12:19:34;;;;;;;5.72;3.38;;;23.90;55.50;;;;;;4921560;29;20079;-69
2022/05/07 12:30:13;;;;;;;4.82;3.25;;;23.80;54.40;;;;;;4934994;29;20055;-69
2022/05/07 12:32:43;;;;;;;6.15;3.20;;;23.80;53.70;;;;;;4935919;29;20071;-69
2022/05/07 12:35:09;;;;;;;6.28;3.67;;;23.80;53.80;;;;;;4935007;29;20042;-69
2022/05/07 12:37:35;;;;;;;5.70;3.90;;;24.00;53.80;;;;;;4932809;29;20032;-69
2022/05/07 12:40:01;;;;;;;6.10;3.58;;;24.00;53.70;;;;;;4931741;29;20625;-69
2022/05/07 12:42:26;;;;;;;7.03;4.78;;;24.20;54.40;;;;;;4932562;29;20031;-69
2022/05/07 12:44:52;;;;;;;10.25;5.00;;;24.20;53.70;;;;;;4931193;29;20031;-70
2022/05/07 12:47:18;;;;;;;4.82;3.63;;;24.30;53.90;;;;;;4935257;29;20082;-69
2022/05/07 12:49:43;;;;;;;4.75;3.42;;;24.50;53.70;;;;;;4935058;29;20028;-69
2022/05/07 12:52:09;;;;;;;8.23;3.95;;;24.50;53.50;;;;;;4935366;29;20047;-70
2022/05/07 12:54:36;;;;;;;5.45;3.88;;;24.60;53.50;;;;;;4917963;29;20063;-69
2022/05/07 12:57:02;;;;;;;7.05;3.67;;;24.70;53.00;;;;;;4931637;29;20040;-69
2022/05/07 12:59:27;;;;;;;8.82;4.32;;;24.80;53.40;;;;;;4933981;29;20038;-69
2022/05/07 13:01:53;;;;;;;6.35;3.42;;;24.90;53.00;;;;;;4937186;29;20027;-67
2022/05/07 13:04:22;;;;;;;6.95;3.35;;;24.90;52.80;;;;;;4935335;29;20515;-68
2022/05/07 13:06:49;;;;;;;5.32;3.13;;;24.90;52.80;;;;;;4934786;29;20048;-69
2022/05/07 13:09:14;;;;;;;5.50;3.83;;;24.90;52.90;;;;;;4923731;29;20073;-69
2022/05/07 13:11:40;;;;;;;6.50;3.83;;;24.90;52.90;;;;;;4933580;29;20428;-68
2022/05/07 13:14:05;;;;;;;7.18;3.28;;;24.90;52.70;;;;;;4931647;29;20043;-68
2022/05/07 13:16:30;;;;;;;7.20;3.13;;;24.90;52.20;;;;;;4934596;29;20111;-61
2022/05/07 13:18:56;;;;;;;5.90;3.40;;;24.90;54.80;;;;;;4928541;29;20487;-67